Rittman, OH

7:55 AM EDT on September 05, 2015 (GMT -0400)
N8OFP (Rittman, Ohio) | | Change Station
CLOSE
Current Station
Personal Weather Station
Location: Rittman, OH
Elevation: 1135 ft
Nearby Weather Stations

Elev 1135 ft 40.97 °N, 81.79 °W | Updated 28 seconds ago

Clear
Clear
64.2 °F
Feels Like 64.2 °F
N
0.0
Wind Variable Wind from ENE
Gusts 0.0 mph

Today
High -- | Low -- °F
--% Chance of Precip.
Yesterday
High -- | Low -- °F
Precip. -- in
6:57 AM 7:53 PM
Waning Gibbous, 49% visible
Pressure 30.17 in
Visibility 1.5 miles
Clouds Clear
Dew Point 64 °F
Humidity 99%
Rainfall 0.00 in
Snow Depth Not available.
UV 0 out of 12
Pollen 10.10 out of 12
Air Quality Not available.
Flu Activity Not available.
SPECI KBJJ 051128Z AUTO 13003KT 1 1/2SM BR CLR 17/16 A3017 RMK AO2 T01670161 TSNO
Pressure 30.17 in
Visibility 1.5 miles
Clouds Clear
Dew Point 64 °F
Humidity 99%
Rainfall 0.00 in
Snow Depth Not available.
UV 0 out of 12
Pollen 10.10 out of 12
Air Quality Not available.
Flu Activity Not available.
SPECI KBJJ 051128Z AUTO 13003KT 1 1/2SM BR CLR 17/16 A3017 RMK AO2 T01670161 TSNO

10-Day Weather Forecast

×

Almanac

Astronomy

Sep. 05, 2015 Rise Set
Actual Time
Civil Twilight
Nautical Twilight
Astronomical Twilight
Moon
Length of Visible Light
Length of Day
Tomorrow will be .
, % of the Moon is Illuminated

Today's Extremes

State Highs State Lows

Community

WunderPhotos

Upload Photos

1,852,449 photos uploaded!

WunderBlogs® & News

Nearby

Air Quality

  Air Quality AQ Index Pollutant
Not available.

Snow Depth

Station Depth Elevation

Earthquake Activity

City Distance Mag. Time & Date
Minimum magnitude displayed is 2.5.

Coastal Water Temperatures

Place Temperature

Stations

Nearby Weather Stations

Station Location Temp. Windchill Dew Point Humidity Wind Precip. Elev Updated Type